Time;durP1;ratioP1;P1;durP2;ratioP2;P2;SDS_P1;SDS_P2;PMS_P1;PMS_P2;Temp;Humidity;BMP_temperature;BMP_pressure;BME280_temperature;BME280_humidity;BME280_pressure;Samples;Min_cycle;Max_cycle;Signal;HPM_P1;HPM_P2
2022/03/04 00:02:11;;;;;;;18.02;10.80;;;;;;;;;;5080514;28;20027;-76
2022/03/04 00:04:37;;;;;;;13.15;10.60;;;;;;;;;;5081891;28;20159;-76
2022/03/04 00:07:04;;;;;;;15.95;10.80;;;;;;;;;;5081585;28;20035;-75
2022/03/04 00:09:31;;;;;;;12.10;9.70;;;;;;;;;;5082341;28;20544;-77
2022/03/04 00:11:57;;;;;;;11.90;9.60;;;;;;;;;;5081316;28;20539;-71
2022/03/04 00:14:27;;;;;;;13.60;9.05;;;;;;;;;;5082387;28;20536;-70
2022/03/04 00:16:53;;;;;;;11.98;8.73;;;;;;;;;;5081196;28;20028;-76
2022/03/04 00:19:19;;;;;;;12.13;8.05;;;;;;;;;;5079343;28;20400;-75
2022/03/04 00:21:48;;;;;;;16.20;8.20;;;;;;;;;;5081696;28;20047;-72
2022/03/04 00:24:15;;;;;;;11.05;9.00;;;;;;;;;;5082251;28;20099;-76
2022/03/04 00:26:42;;;;;;;12.65;8.18;;;;;;;;;;5084702;28;20034;-75
2022/03/04 00:29:08;;;;;;;10.82;8.68;;;;;;;;;;5085664;28;20036;-72
2022/03/04 00:31:35;;;;;;;11.40;8.65;;;;;;;;;;5084772;28;20028;-72
2022/03/04 00:34:02;;;;;;;12.02;9.18;;;;;;;;;;5079738;28;20510;-76
2022/03/04 00:36:28;;;;;;;13.55;9.25;;;;;;;;;;5082823;28;20039;-78
2022/03/04 00:38:55;;;;;;;10.38;8.48;;;;;;;;;;5084972;28;20044;-70
2022/03/04 00:41:22;;;;;;;12.90;8.52;;;;;;;;;;5085452;28;20024;-70
2022/03/04 00:43:49;;;;;;;13.80;8.65;;;;;;;;;;5082098;28;20114;-74
2022/03/04 00:46:16;;;;;;;19.00;9.60;;;;;;;;;;5080936;28;20116;-72
2022/03/04 00:48:42;;;;;;;13.65;8.52;;;;;;;;;;5087651;28;20066;-70
2022/03/04 00:51:09;;;;;;;16.30;9.90;;;;;;;;;;5087930;28;20267;-69
2022/03/04 00:53:36;;;;;;;10.40;8.25;;;;;;;;;;5087942;28;20036;-78
2022/03/04 00:56:02;;;;;;;10.88;8.68;;;;;;;;;;5087121;28;20035;-74
2022/03/04 00:58:28;;;;;;;11.65;8.02;;;;;;;;;;5076862;28;20131;-70
2022/03/04 01:00:54;;;;;;;13.63;8.65;;;;;;;;;;5067329;28;20023;-70
2022/03/04 01:03:21;;;;;;;13.73;9.68;;;;;;;;;;5067140;28;20043;-76
2022/03/04 01:05:47;;;;;;;13.07;10.23;;;;;;;;;;5049221;28;20519;-72
2022/03/04 01:08:13;;;;;;;12.77;9.35;;;;;;;;;;5066911;28;20095;-74
2022/03/04 01:10:40;;;;;;;12.00;8.82;;;;;;;;;;5066791;28;20028;-73
2022/03/04 01:13:06;;;;;;;10.32;7.95;;;;;;;;;;5084306;28;20504;-69
2022/03/04 01:15:32;;;;;;;12.90;7.88;;;;;;;;;;5087167;28;20027;-70
2022/03/04 01:17:58;;;;;;;14.50;8.35;;;;;;;;;;5069047;28;20047;-70
2022/03/04 01:20:25;;;;;;;10.80;7.90;;;;;;;;;;5087338;28;20578;-69
2022/03/04 01:22:51;;;;;;;11.00;8.63;;;;;;;;;;5087110;28;20028;-75
2022/03/04 01:25:17;;;;;;;11.75;8.25;;;;;;;;;;5087207;28;20020;-69
2022/03/04 01:27:43;;;;;;;11.98;8.65;;;;;;;;;;5087042;28;20472;-69
2022/03/04 01:30:10;;;;;;;15.90;8.85;;;;;;;;;;5071970;28;20032;-69
2022/03/04 01:32:37;;;;;;;17.55;9.05;;;;;;;;;;5087063;28;20028;-69
2022/03/04 01:35:04;;;;;;;10.02;8.32;;;;;;;;;;5086879;28;20103;-69
2022/03/04 01:37:30;;;;;;;14.35;8.68;;;;;;;;;;5086040;28;20028;-71
2022/03/04 01:39:57;;;;;;;14.85;8.60;;;;;;;;;;5086853;28;20099;-71
2022/03/04 01:42:23;;;;;;;10.75;8.00;;;;;;;;;;5087889;28;20036;-69
2022/03/04 01:44:49;;;;;;;15.27;8.57;;;;;;;;;;5085040;28;20052;-69
2022/03/04 01:47:15;;;;;;;16.10;8.05;;;;;;;;;;5080773;28;20031;-69
2022/03/04 01:49:42;;;;;;;10.70;7.65;;;;;;;;;;5076837;28;20024;-69
2022/03/04 01:52:08;;;;;;;12.80;7.35;;;;;;;;;;5079194;28;20039;-69
2022/03/04 01:54:34;;;;;;;11.75;7.43;;;;;;;;;;5081777;28;20091;-69
2022/03/04 01:57:01;;;;;;;10.93;7.60;;;;;;;;;;5078878;28;20512;-68
2022/03/04 01:59:27;;;;;;;12.60;7.32;;;;;;;;;;5078676;28;20490;-71
2022/03/04 02:01:53;;;;;;;10.45;7.43;;;;;;;;;;5078000;28;20027;-73
2022/03/04 02:04:24;;;;;;;11.05;7.32;;;;;;;;;;5079053;28;20048;-68
2022/03/04 02:06:50;;;;;;;10.90;6.93;;;;;;;;;;5071474;28;20053;-69
2022/03/04 02:09:16;;;;;;;11.80;7.35;;;;;;;;;;5079023;28;20081;-69
2022/03/04 02:11:44;;;;;;;18.00;6.72;;;;;;;;;;5076191;28;20102;-68
2022/03/04 02:14:13;;;;;;;14.68;6.97;;;;;;;;;;5076166;28;20697;-69
2022/03/04 02:16:49;;;;;;;14.70;7.53;;;;;;;;;;5071694;28;20511;-70
2022/03/04 02:19:16;;;;;;;9.77;6.25;;;;;;;;;;5077757;28;20381;-67
2022/03/04 02:21:51;;;;;;;11.52;6.03;;;;;;;;;;5071339;28;20025;-73
2022/03/04 02:24:17;;;;;;;9.98;5.75;;;;;;;;;;5072402;28;20707;-70
2022/03/04 02:26:44;;;;;;;11.35;7.18;;;;;;;;;;5076299;28;20031;-69
2022/03/04 02:29:10;;;;;;;10.85;5.93;;;;;;;;;;5074802;28;20022;-72
2022/03/04 02:31:36;;;;;;;7.03;5.57;;;;;;;;;;5075141;28;20055;-74
2022/03/04 02:34:03;;;;;;;8.90;4.93;;;;;;;;;;5073689;28;20017;-68
2022/03/04 02:36:29;;;;;;;10.98;6.03;;;;;;;;;;5074683;28;20034;-69
2022/03/04 02:38:55;;;;;;;9.55;6.13;;;;;;;;;;5071105;28;20036;-68
2022/03/04 02:41:21;;;;;;;10.07;5.88;;;;;;;;;;5076236;28;20024;-68
2022/03/04 02:43:47;;;;;;;11.77;5.13;;;;;;;;;;5072496;28;20103;-70
2022/03/04 02:46:14;;;;;;;11.38;5.43;;;;;;;;;;5077527;28;20035;-69
2022/03/04 02:48:40;;;;;;;6.43;4.78;;;;;;;;;;5063134;28;20069;-72
2022/03/04 02:51:07;;;;;;;7.93;5.00;;;;;;;;;;5070329;28;20028;-72
2022/03/04 02:53:33;;;;;;;8.45;5.50;;;;;;;;;;5074184;28;20020;-68
2022/03/04 02:55:59;;;;;;;7.40;5.20;;;;;;;;;;5070968;28;20025;-69
2022/03/04 02:58:26;;;;;;;7.95;5.15;;;;;;;;;;5073894;28;20040;-71
2022/03/04 03:00:52;;;;;;;10.27;5.20;;;;;;;;;;5078382;28;20035;-72
2022/03/04 03:03:18;;;;;;;9.80;5.18;;;;;;;;;;5076318;28;20051;-72
2022/03/04 03:05:44;;;;;;;8.80;4.80;;;;;;;;;;5074933;28;20781;-72
2022/03/04 03:08:11;;;;;;;7.25;5.40;;;;;;;;;;5073319;28;20032;-68
2022/03/04 03:10:37;;;;;;;7.45;5.05;;;;;;;;;;5071714;28;20028;-73
2022/03/04 03:13:03;;;;;;;8.45;4.82;;;;;;;;;;5074092;28;20028;-69
2022/03/04 03:15:30;;;;;;;7.43;4.72;;;;;;;;;;5072227;28;20024;-73
2022/03/04 03:17:56;;;;;;;10.20;5.00;;;;;;;;;;5070281;28;20043;-73
2022/03/04 03:20:22;;;;;;;6.65;4.55;;;;;;;;;;5055786;28;20036;-70
2022/03/04 03:22:48;;;;;;;8.02;5.25;;;;;;;;;;5073005;28;20025;-68
2022/03/04 03:25:15;;;;;;;7.90;5.00;;;;;;;;;;5070223;28;20019;-71
2022/03/04 03:27:41;;;;;;;13.15;4.85;;;;;;;;;;5072190;28;20031;-73
2022/03/04 03:30:08;;;;;;;10.55;5.30;;;;;;;;;;5073849;28;20094;-73
2022/03/04 03:32:35;;;;;;;6.75;5.50;;;;;;;;;;5074627;28;20036;-68
2022/03/04 03:35:01;;;;;;;9.23;4.80;;;;;;;;;;5071426;28;20039;-67
2022/03/04 03:37:28;;;;;;;10.38;5.93;;;;;;;;;;5073783;28;20040;-70
2022/03/04 03:39:54;;;;;;;7.40;4.72;;;;;;;;;;5074102;28;20039;-73
2022/03/04 03:42:20;;;;;;;8.57;5.43;;;;;;;;;;5070285;28;20070;-68
2022/03/04 03:44:46;;;;;;;8.50;5.28;;;;;;;;;;5074815;28;20044;-72
2022/03/04 03:47:12;;;;;;;5.82;4.78;;;;;;;;;;5072465;28;20757;-69
2022/03/04 03:49:39;;;;;;;7.70;5.28;;;;;;;;;;5071962;28;20835;-68
2022/03/04 03:52:06;;;;;;;9.40;5.28;;;;;;;;;;5073884;28;20032;-71
2022/03/04 03:54:33;;;;;;;9.40;5.53;;;;;;;;;;5071108;28;20438;-72
2022/03/04 03:56:59;;;;;;;8.57;5.07;;;;;;;;;;5074227;28;20033;-68
2022/03/04 03:59:25;;;;;;;10.35;5.57;;;;;;;;;;5076568;28;20036;-73
2022/03/04 04:01:51;;;;;;;6.88;4.90;;;;;;;;;;5074693;28;20024;-69
2022/03/04 04:04:17;;;;;;;9.90;5.18;;;;;;;;;;5074476;28;20058;-73
2022/03/04 04:06:44;;;;;;;7.90;6.03;;;;;;;;;;5066506;28;20110;-73
2022/03/04 04:09:11;;;;;;;7.20;5.03;;;;;;;;;;5088699;28;20015;-68
2022/03/04 04:11:38;;;;;;;7.82;5.00;;;;;;;;;;5088382;28;20020;-67
2022/03/04 04:14:05;;;;;;;9.05;4.95;;;;;;;;;;5088823;28;20016;-67
2022/03/04 04:16:32;;;;;;;9.50;5.55;;;;;;;;;;5088835;28;20479;-68
2022/03/04 04:18:58;;;;;;;9.75;5.95;;;;;;;;;;5088801;28;20040;-68
2022/03/04 04:21:25;;;;;;;7.00;4.85;;;;;;;;;;5088494;28;20023;-72
2022/03/04 04:23:52;;;;;;;16.33;6.20;;;;;;;;;;5088634;28;20027;-72
2022/03/04 04:26:19;;;;;;;7.60;4.80;;;;;;;;;;5088386;28;20059;-68
2022/03/04 04:28:45;;;;;;;8.43;5.07;;;;;;;;;;5088763;28;20027;-72
2022/03/04 04:31:11;;;;;;;7.93;5.15;;;;;;;;;;5088201;28;20024;-73
2022/03/04 04:33:38;;;;;;;8.60;5.10;;;;;;;;;;5070121;28;20395;-71
2022/03/04 04:36:05;;;;;;;7.45;4.65;;;;;;;;;;5088460;28;20546;-72
2022/03/04 04:38:31;;;;;;;7.25;4.20;;;;;;;;;;5088636;28;20556;-72
2022/03/04 04:40:58;;;;;;;11.40;5.28;;;;;;;;;;5088671;28;20028;-70
2022/03/04 04:43:24;;;;;;;7.80;4.95;;;;;;;;;;5069915;28;20032;-74
2022/03/04 04:45:51;;;;;;;17.92;5.53;;;;;;;;;;5088087;28;20157;-69
2022/03/04 04:48:17;;;;;;;8.93;4.55;;;;;;;;;;5071553;28;20057;-69
2022/03/04 04:50:43;;;;;;;6.32;4.25;;;;;;;;;;5068151;28;20020;-71
2022/03/04 04:53:09;;;;;;;7.72;5.10;;;;;;;;;;5076138;28;20032;-72
2022/03/04 04:55:36;;;;;;;12.27;4.63;;;;;;;;;;5088173;28;20016;-75
2022/03/04 04:58:02;;;;;;;8.93;4.82;;;;;;;;;;5088047;28;20099;-73
2022/03/04 05:00:28;;;;;;;8.40;5.07;;;;;;;;;;5088502;28;20028;-70
2022/03/04 05:02:54;;;;;;;7.80;4.70;;;;;;;;;;5087882;28;20031;-73
2022/03/04 05:05:20;;;;;;;7.28;4.45;;;;;;;;;;5088091;28;20020;-74
2022/03/04 05:07:47;;;;;;;8.60;4.47;;;;;;;;;;5087643;28;20529;-74
2022/03/04 05:10:13;;;;;;;6.75;4.55;;;;;;;;;;5087334;28;20081;-72
2022/03/04 05:12:40;;;;;;;8.95;4.93;;;;;;;;;;5084409;28;20020;-72
2022/03/04 05:15:07;;;;;;;11.63;4.57;;;;;;;;;;5084681;28;20026;-75
2022/03/04 05:17:33;;;;;;;7.68;5.00;;;;;;;;;;5084324;28;20484;-72
2022/03/04 05:19:59;;;;;;;8.13;4.72;;;;;;;;;;5084669;28;20060;-73
2022/03/04 05:22:25;;;;;;;9.27;5.28;;;;;;;;;;5084528;28;20387;-68
2022/03/04 05:24:52;;;;;;;8.32;4.85;;;;;;;;;;5084585;28;20076;-72
2022/03/04 05:27:18;;;;;;;10.93;5.30;;;;;;;;;;5084590;28;20028;-73
2022/03/04 05:29:44;;;;;;;9.02;4.68;;;;;;;;;;5084318;28;20028;-72
2022/03/04 05:32:10;;;;;;;9.98;5.07;;;;;;;;;;5084894;28;20027;-70
2022/03/04 05:34:41;;;;;;;7.80;5.25;;;;;;;;;;5066598;28;20456;-74
2022/03/04 05:37:07;;;;;;;8.13;5.50;;;;;;;;;;5084227;28;20739;-75
2022/03/04 05:39:33;;;;;;;9.02;5.15;;;;;;;;;;5069732;28;20387;-73
2022/03/04 05:41:59;;;;;;;12.15;4.75;;;;;;;;;;5084696;28;20457;-79
2022/03/04 05:44:25;;;;;;;7.32;5.13;;;;;;;;;;5076405;28;20050;-79
2022/03/04 05:46:52;;;;;;;9.30;5.90;;;;;;;;;;5067045;28;20051;-75
2022/03/04 05:49:18;;;;;;;8.48;6.25;;;;;;;;;;5082284;28;20073;-80
2022/03/04 05:51:44;;;;;;;7.82;5.90;;;;;;;;;;5063968;28;20036;-71
2022/03/04 05:54:10;;;;;;;8.13;5.53;;;;;;;;;;5082327;28;20098;-75
2022/03/04 05:56:36;;;;;;;9.02;5.50;;;;;;;;;;5081439;28;20032;-70
2022/03/04 05:59:02;;;;;;;10.63;5.50;;;;;;;;;;5082042;28;20036;-75
2022/03/04 06:01:28;;;;;;;9.15;6.78;;;;;;;;;;5080547;28;20020;-77
2022/03/04 06:03:55;;;;;;;11.25;7.10;;;;;;;;;;5081436;28;20047;-78
2022/03/04 06:06:21;;;;;;;10.18;7.47;;;;;;;;;;5081917;28;20024;-78
2022/03/04 06:08:48;;;;;;;12.40;7.97;;;;;;;;;;5081967;28;20051;-79
2022/03/04 06:11:15;;;;;;;10.07;7.15;;;;;;;;;;5083765;28;20028;-80
2022/03/04 06:13:41;;;;;;;14.10;7.50;;;;;;;;;;5084163;28;20052;-81
2022/03/04 06:16:07;;;;;;;10.35;7.05;;;;;;;;;;5084231;28;20028;-79
2022/03/04 06:18:34;;;;;;;7.95;6.80;;;;;;;;;;5083855;28;20040;-77
2022/03/04 06:21:00;;;;;;;10.23;6.82;;;;;;;;;;5083659;28;20120;-72
2022/03/04 06:23:26;;;;;;;12.40;7.70;;;;;;;;;;5083502;28;20208;-79
2022/03/04 06:25:52;;;;;;;30.42;20.17;;;;;;;;;;5083255;28;20177;-78
2022/03/04 06:28:18;;;;;;;51.35;31.50;;;;;;;;;;5082763;28;20024;-83
2022/03/04 06:30:45;;;;;;;37.92;22.15;;;;;;;;;;5083801;28;20026;-80
2022/03/04 06:33:30;;;;;;;13.70;8.27;;;;;;;;;;5084050;28;20047;-82
2022/03/04 06:35:56;;;;;;;13.18;7.72;;;;;;;;;;5083585;28;20024;-80
2022/03/04 06:38:22;;;;;;;11.93;7.93;;;;;;;;;;5083929;28;20036;-79
2022/03/04 06:40:49;;;;;;;11.98;8.70;;;;;;;;;;5083760;28;20016;-83
2022/03/04 06:43:15;;;;;;;15.90;10.93;;;;;;;;;;5083423;28;20176;-83
2022/03/04 06:45:45;;;;;;;31.98;23.17;;;;;;;;;;5083821;28;20020;-84
2022/03/04 06:48:11;;;;;;;19.90;13.93;;;;;;;;;;5083773;28;20039;-84
2022/03/04 06:50:38;;;;;;;27.20;20.70;;;;;;;;;;5083586;28;20093;-73
2022/03/04 06:53:04;;;;;;;34.58;25.23;;;;;;;;;;5083573;28;20059;-77
2022/03/04 06:55:31;;;;;;;35.10;26.58;;;;;;;;;;5083678;28;20089;-81
2022/03/04 06:57:57;;;;;;;32.55;22.50;;;;;;;;;;5083717;28;20100;-83
2022/03/04 07:00:24;;;;;;;21.02;15.98;;;;;;;;;;5083496;28;20099;-84
2022/03/04 07:02:51;;;;;;;27.95;19.90;;;;;;;;;;5083124;28;20020;-84
2022/03/04 07:05:18;;;;;;;30.33;23.45;;;;;;;;;;5083252;28;20024;-75
2022/03/04 07:07:44;;;;;;;44.47;32.70;;;;;;;;;;5083762;28;20051;-81
2022/03/04 07:10:10;;;;;;;40.28;31.70;;;;;;;;;;5083431;28;20028;-77
2022/03/04 07:12:37;;;;;;;35.13;26.73;;;;;;;;;;5083238;28;20035;-78
2022/03/04 07:15:03;;;;;;;26.30;18.92;;;;;;;;;;5083145;28;20023;-76
2022/03/04 07:17:29;;;;;;;60.00;45.45;;;;;;;;;;5082864;28;20039;-74
2022/03/04 07:19:56;;;;;;;47.97;36.53;;;;;;;;;;5082390;28;20536;-73
2022/03/04 07:22:22;;;;;;;22.13;16.35;;;;;;;;;;5082876;28;20024;-81
2022/03/04 07:24:48;;;;;;;15.00;12.10;;;;;;;;;;5083203;28;20502;-84
2022/03/04 07:27:14;;;;;;;15.85;10.27;;;;;;;;;;5082395;28;20024;-80
2022/03/04 07:29:40;;;;;;;10.40;7.22;;;;;;;;;;5082961;28;20036;-80
2022/03/04 07:32:06;;;;;;;9.13;6.50;;;;;;;;;;5082461;28;20028;-71
2022/03/04 07:34:33;;;;;;;12.23;8.15;;;;;;;;;;5082101;28;20023;-82
2022/03/04 07:36:59;;;;;;;12.20;7.40;;;;;;;;;;5083019;28;20089;-84
2022/03/04 07:39:25;;;;;;;10.30;6.38;;;;;;;;;;5064061;28;20162;-71
2022/03/04 07:41:51;;;;;;;7.15;5.80;;;;;;;;;;5082508;28;20027;-75
2022/03/04 07:44:18;;;;;;;9.73;6.20;;;;;;;;;;5082519;28;20089;-70
2022/03/04 07:46:44;;;;;;;8.20;5.78;;;;;;;;;;5082785;28;20025;-70
2022/03/04 07:49:10;;;;;;;6.47;5.63;;;;;;;;;;5082486;28;20110;-70
2022/03/04 07:51:36;;;;;;;9.15;6.18;;;;;;;;;;5082525;28;20028;-77
2022/03/04 07:54:02;;;;;;;8.68;5.90;;;;;;;;;;5082339;28;20112;-70
2022/03/04 07:56:29;;;;;;;7.72;5.47;;;;;;;;;;5082185;28;20024;-84
2022/03/04 07:58:55;;;;;;;7.35;4.75;;;;;;;;;;5082267;28;20042;-71
2022/03/04 08:01:21;;;;;;;6.57;4.25;;;;;;;;;;5082507;28;20024;-83
2022/03/04 08:03:47;;;;;;;7.57;4.80;;;;;;;;;;5081630;28;20105;-74
2022/03/04 08:06:13;;;;;;;6.97;5.63;;;;;;;;;;5082145;28;20020;-72
2022/03/04 08:08:40;;;;;;;6.47;4.75;;;;;;;;;;5080499;28;20030;-75
2022/03/04 08:11:06;;;;;;;7.78;4.10;;;;;;;;;;5079458;28;20060;-74
2022/03/04 08:13:34;;;;;;;7.07;4.35;;;;;;;;;;5082089;28;20028;-75
2022/03/04 08:16:00;;;;;;;5.75;4.50;;;;;;;;;;5082506;28;20781;-71
2022/03/04 08:18:26;;;;;;;6.45;4.30;;;;;;;;;;5082077;28;20081;-72
2022/03/04 08:20:53;;;;;;;7.68;5.57;;;;;;;;;;5082190;28;20035;-76
2022/03/04 08:23:20;;;;;;;6.53;5.38;;;;;;;;;;5082178;28;20077;-85
2022/03/04 08:25:46;;;;;;;8.30;5.03;;;;;;;;;;5082313;28;20034;-72
2022/03/04 08:28:12;;;;;;;6.68;4.57;;;;;;;;;;5082042;28;20527;-71
2022/03/04 08:30:38;;;;;;;7.82;4.45;;;;;;;;;;5081574;28;20024;-71
2022/03/04 08:33:04;;;;;;;7.32;3.72;;;;;;;;;;5082117;28;20107;-72
2022/03/04 08:35:31;;;;;;;15.57;5.30;;;;;;;;;;5082072;28;20023;-70
2022/03/04 08:37:57;;;;;;;6.00;4.60;;;;;;;;;;5064018;28;20032;-70
2022/03/04 08:40:24;;;;;;;6.13;4.25;;;;;;;;;;5081378;28;20012;-77
2022/03/04 08:42:50;;;;;;;4.30;3.90;;;;;;;;;;5081746;28;20594;-70
2022/03/04 08:45:16;;;;;;;8.50;5.30;;;;;;;;;;5082251;28;20414;-76
2022/03/04 08:47:46;;;;;;;8.68;4.40;;;;;;;;;;5085600;28;20019;-70
2022/03/04 08:50:13;;;;;;;6.50;4.25;;;;;;;;;;5085611;28;20099;-75
2022/03/04 08:52:39;;;;;;;8.63;5.35;;;;;;;;;;5086427;28;20035;-71
2022/03/04 08:55:07;;;;;;;7.45;5.38;;;;;;;;;;5086237;28;20095;-76
2022/03/04 08:57:34;;;;;;;10.95;5.72;;;;;;;;;;5085565;28;20032;-81
2022/03/04 09:00:00;;;;;;;9.68;5.93;;;;;;;;;;5085775;28;20471;-73
2022/03/04 09:02:26;;;;;;;10.27;7.45;;;;;;;;;;5086109;28;20028;-81
2022/03/04 09:04:53;;;;;;;11.75;7.32;;;;;;;;;;5085664;28;20048;-73
2022/03/04 09:07:20;;;;;;;10.23;6.38;;;;;;;;;;5085730;28;20498;-78
2022/03/04 09:09:46;;;;;;;8.10;5.78;;;;;;;;;;5085762;28;20498;-78
2022/03/04 09:12:13;;;;;;;8.52;5.43;;;;;;;;;;5086121;28;20310;-84
2022/03/04 09:14:39;;;;;;;8.65;6.15;;;;;;;;;;5085610;28;20020;-80
2022/03/04 09:17:05;;;;;;;8.20;5.38;;;;;;;;;;5085772;28;20166;-85
2022/03/04 09:19:31;;;;;;;9.07;5.32;;;;;;;;;;5086030;28;20113;-84
2022/03/04 09:21:58;;;;;;;7.18;5.03;;;;;;;;;;5085174;28;20111;-81
2022/03/04 09:24:24;;;;;;;9.57;5.50;;;;;;;;;;5078653;28;20027;-81
2022/03/04 09:26:50;;;;;;;7.68;5.05;;;;;;;;;;5054893;28;20093;-78
2022/03/04 09:29:16;;;;;;;10.25;7.03;;;;;;;;;;5082830;28;20028;-78
2022/03/04 09:31:43;;;;;;;11.65;6.68;;;;;;;;;;5084670;28;20484;-74
2022/03/04 09:34:09;;;;;;;10.45;6.25;;;;;;;;;;5084085;28;20030;-72
2022/03/04 09:36:35;;;;;;;7.72;5.45;;;;;;;;;;5084290;28;20497;-77
2022/03/04 09:39:01;;;;;;;6.43;4.60;;;;;;;;;;5084076;28;20385;-75
2022/03/04 09:41:27;;;;;;;9.20;5.25;;;;;;;;;;5081767;28;20016;-70
2022/03/04 09:43:57;;;;;;;8.13;5.20;;;;;;;;;;5082368;28;20028;-79
2022/03/04 09:46:23;;;;;;;6.50;5.05;;;;;;;;;;5081402;28;20081;-76
2022/03/04 09:48:50;;;;;;;6.65;4.60;;;;;;;;;;5079206;28;20077;-72
2022/03/04 09:51:17;;;;;;;9.73;4.90;;;;;;;;;;5082164;28;20032;-71
2022/03/04 09:53:44;;;;;;;6.70;4.72;;;;;;;;;;5071273;28;20064;-77
2022/03/04 09:56:10;;;;;;;5.90;4.68;;;;;;;;;;5081684;28;20525;-77
2022/03/04 09:58:37;;;;;;;4.95;4.38;;;;;;;;;;5081800;28;20071;-71
2022/03/04 10:01:09;;;;;;;7.28;5.30;;;;;;;;;;5079897;28;20031;-77
2022/03/04 10:03:35;;;;;;;;;;;;;;;;;;5083490;28;20044;-78
2022/03/04 10:06:01;;;;;;;5.35;4.28;;;;;;;;;;5084041;28;19951;-78
2022/03/04 10:08:27;;;;;;;6.05;4.05;;;;;;;;;;5083689;28;20039;-80
2022/03/04 10:10:55;;;;;;;5.50;4.18;;;;;;;;;;5083666;28;20057;-78
2022/03/04 10:13:40;;;;;;;6.35;3.85;;;;;;;;;;5083632;28;20020;-79
2022/03/04 10:16:06;;;;;;;3.85;3.42;;;;;;;;;;5082873;28;20144;-76
2022/03/04 10:18:32;;;;;;;8.68;4.07;;;;;;;;;;5082905;28;20036;-80
2022/03/04 10:20:58;;;;;;;9.60;4.10;;;;;;;;;;5083396;28;20020;-77
2022/03/04 10:23:27;;;;;;;8.52;4.40;;;;;;;;;;5082890;28;20028;-74
2022/03/04 10:25:54;;;;;;;7.45;4.35;;;;;;;;;;5083361;28;20047;-76
2022/03/04 10:28:24;;;;;;;6.22;4.20;;;;;;;;;;5081004;28;20024;-72
2022/03/04 10:30:52;;;;;;;6.82;3.67;;;;;;;;;;5078771;28;20768;-80
2022/03/04 10:33:28;;;;;;;5.32;3.97;;;;;;;;;;5079234;28;20012;-74
2022/03/04 10:36:13;;;;;;;7.50;3.88;;;;;;;;;;5082160;28;20024;-80
2022/03/04 10:38:40;;;;;;;5.22;3.63;;;;;;;;;;5083071;28;20088;-77
2022/03/04 10:41:26;;;;;;;4.55;3.20;;;;;;;;;;5082988;28;20500;-72
2022/03/04 10:43:53;;;;;;;4.45;3.35;;;;;;;;;;5077385;28;20035;-78
2022/03/04 10:46:20;;;;;;;4.22;3.38;;;;;;;;;;5082559;28;20191;-70
2022/03/04 10:48:53;;;;;;;5.07;3.40;;;;;;;;;;5082974;28;20691;-71
2022/03/04 10:51:33;;;;;;;5.43;3.45;;;;;;;;;;5082045;28;20099;-72
2022/03/04 10:54:12;;;;;;;4.68;3.72;;;;;;;;;;5081468;28;20115;-79
2022/03/04 10:56:48;;;;;;;4.63;3.50;;;;;;;;;;5082272;28;20496;-79
2022/03/04 10:59:14;;;;;;;5.50;3.90;;;;;;;;;;5082515;28;20037;-74
2022/03/04 11:01:50;;;;;;;5.18;3.60;;;;;;;;;;5082881;28;20048;-70
2022/03/04 11:04:20;;;;;;;6.55;4.03;;;;;;;;;;5071467;28;20540;-71
2022/03/04 11:06:47;;;;;;;7.57;3.95;;;;;;;;;;5061822;28;20035;-78
2022/03/04 11:09:14;;;;;;;5.45;4.10;;;;;;;;;;5075290;28;20032;-79
2022/03/04 11:11:43;;;;;;;5.78;3.97;;;;;;;;;;5082604;28;20028;-72
2022/03/04 11:14:11;;;;;;;4.43;3.65;;;;;;;;;;5081423;28;20135;-73
2022/03/04 11:16:38;;;;;;;6.10;3.90;;;;;;;;;;5081895;28;20615;-78
2022/03/04 11:19:04;;;;;;;4.07;3.60;;;;;;;;;;5076574;28;20029;-76
2022/03/04 11:21:30;;;;;;;8.57;4.53;;;;;;;;;;5073353;28;20469;-77
2022/03/04 11:23:56;;;;;;;4.38;3.45;;;;;;;;;;5081772;28;20027;-75
2022/03/04 11:26:25;;;;;;;6.47;3.75;;;;;;;;;;5081708;28;20035;-78
2022/03/04 11:28:54;;;;;;;8.20;3.45;;;;;;;;;;5081192;28;20859;-80
2022/03/04 11:31:20;;;;;;;5.47;3.67;;;;;;;;;;5080802;28;20413;-80
2022/03/04 11:33:51;;;;;;;6.55;4.40;;;;;;;;;;5081892;28;20050;-79
2022/03/04 11:36:22;;;;;;;6.35;4.18;;;;;;;;;;5080887;28;20042;-80
2022/03/04 11:38:48;;;;;;;6.53;4.03;;;;;;;;;;5081978;28;20039;-74
2022/03/04 11:41:17;;;;;;;4.55;3.85;;;;;;;;;;5080474;28;20547;-78
2022/03/04 11:43:50;;;;;;;6.80;4.10;;;;;;;;;;5080235;28;20044;-72
2022/03/04 11:46:21;;;;;;;4.32;3.90;;;;;;;;;;5081583;28;20099;-79
2022/03/04 11:48:47;;;;;;;5.53;4.07;;;;;;;;;;5080811;28;20046;-79
2022/03/04 11:51:17;;;;;;;7.40;3.67;;;;;;;;;;5081290;28;20016;-71
2022/03/04 11:53:44;;;;;;;9.25;5.15;;;;;;;;;;5082079;28;20020;-78
2022/03/04 11:56:19;;;;;;;5.93;4.10;;;;;;;;;;5081854;28;20513;-74
2022/03/04 11:58:57;;;;;;;5.35;3.78;;;;;;;;;;5081495;28;20032;-77
2022/03/04 12:01:27;;;;;;;4.78;4.18;;;;;;;;;;5079374;28;20032;-77
2022/03/04 12:04:12;;;;;;;3.65;3.22;;;;;;;;;;5079053;28;20067;-73
2022/03/04 12:06:39;;;;;;;6.32;3.28;;;;;;;;;;5079924;28;20059;-76
2022/03/04 12:09:23;;;;;;;5.63;4.05;;;;;;;;;;5079960;28;20036;-76
2022/03/04 12:12:08;;;;;;;6.72;3.65;;;;;;;;;;5072142;28;20024;-77
2022/03/04 12:14:35;;;;;;;7.07;4.03;;;;;;;;;;5079748;28;20032;-79
2022/03/04 12:17:01;;;;;;;4.93;3.97;;;;;;;;;;5061812;28;20027;-80
2022/03/04 12:19:31;;;;;;;7.68;4.43;;;;;;;;;;5077608;28;20470;-77
2022/03/04 12:21:57;;;;;;;6.80;3.78;;;;;;;;;;5076056;28;20613;-77
2022/03/04 12:24:34;;;;;;;7.32;3.95;;;;;;;;;;5083703;28;20047;-76
2022/03/04 12:27:02;;;;;;;5.35;3.60;;;;;;;;;;5066124;28;20036;-75
2022/03/04 12:29:45;;;;;;;4.15;3.67;;;;;;;;;;5085328;28;20032;-71
2022/03/04 12:32:11;;;;;;;3.95;3.45;;;;;;;;;;5085445;28;20039;-78
2022/03/04 12:34:47;;;;;;;4.90;3.75;;;;;;;;;;5085551;28;20052;-76
2022/03/04 12:37:14;;;;;;;4.47;3.55;;;;;;;;;;5067637;28;20035;-71
2022/03/04 12:39:43;;;;;;;6.75;3.80;;;;;;;;;;5085163;28;20036;-75
2022/03/04 12:42:10;;;;;;;6.88;4.32;;;;;;;;;;5085292;28;20024;-76
2022/03/04 12:44:37;;;;;;;6.25;4.50;;;;;;;;;;5084523;28;20055;-73
2022/03/04 12:47:03;;;;;;;7.72;4.40;;;;;;;;;;5084880;28;20098;-72
2022/03/04 12:49:31;;;;;;;11.05;4.40;;;;;;;;;;5085467;28;20158;-75
2022/03/04 12:51:57;;;;;;;6.07;3.90;;;;;;;;;;5084341;28;20081;-78
2022/03/04 12:54:36;;;;;;;5.25;3.92;;;;;;;;;;5084977;28;20115;-78
2022/03/04 12:57:04;;;;;;;5.55;3.95;;;;;;;;;;5051644;28;20418;-75
2022/03/04 12:59:42;;;;;;;9.48;4.55;;;;;;;;;;5085822;28;20040;-80
2022/03/04 13:02:08;;;;;;;6.05;4.10;;;;;;;;;;5084730;28;20025;-76
2022/03/04 13:04:34;;;;;;;5.95;4.03;;;;;;;;;;5084474;28;20114;-76
2022/03/04 13:07:01;;;;;;;5.38;3.40;;;;;;;;;;5085046;28;20032;-73
2022/03/04 13:09:28;;;;;;;4.72;3.60;;;;;;;;;;5083750;28;20024;-71
2022/03/04 13:11:54;;;;;;;5.47;4.20;;;;;;;;;;5082196;28;20103;-71
2022/03/04 13:14:21;;;;;;;6.00;4.65;;;;;;;;;;5084070;28;20020;-74
2022/03/04 13:16:50;;;;;;;10.43;7.38;;;;;;;;;;5085175;28;20587;-78
2022/03/04 13:19:29;;;;;;;12.27;7.72;;;;;;;;;;5084916;28;20210;-76
2022/03/04 13:22:03;;;;;;;5.80;4.65;;;;;;;;;;5085786;28;20024;-72
2022/03/04 13:24:31;;;;;;;7.43;4.30;;;;;;;;;;5083027;28;20044;-73
2022/03/04 13:26:58;;;;;;;7.35;4.47;;;;;;;;;;5084677;28;20040;-74
2022/03/04 13:29:30;;;;;;;5.60;4.00;;;;;;;;;;5084534;28;20024;-75
2022/03/04 13:32:04;;;;;;;4.07;3.58;;;;;;;;;;5084145;28;20764;-78
2022/03/04 13:34:31;;;;;;;4.30;3.40;;;;;;;;;;5085669;28;20107;-82
2022/03/04 13:37:00;;;;;;;7.05;4.25;;;;;;;;;;5067753;28;20032;-73
2022/03/04 13:39:33;;;;;;;5.30;3.85;;;;;;;;;;5085326;28;20074;-83
2022/03/04 13:42:18;;;;;;;6.60;4.35;;;;;;;;;;5085067;28;20016;-80
2022/03/04 13:45:05;;;;;;;5.53;4.18;;;;;;;;;;5084930;28;20028;-80
2022/03/04 13:47:31;;;;;;;5.63;4.38;;;;;;;;;;5084928;28;20032;-82
2022/03/04 13:49:57;;;;;;;10.02;4.38;;;;;;;;;;5084202;28;20043;-77
2022/03/04 13:52:24;;;;;;;6.03;4.00;;;;;;;;;;5085119;28;20031;-73
2022/03/04 13:54:51;;;;;;;6.55;4.13;;;;;;;;;;5084496;28;20463;-80
2022/03/04 13:57:43;;;;;;;5.55;3.78;;;;;;;;;;5084100;28;20071;-82
2022/03/04 14:00:09;;;;;;;;;;;;;;;;;;5062761;28;20464;-72
2022/03/04 14:02:46;;;;;;;7.72;4.90;;;;;;;;;;5083330;28;19939;-73
2022/03/04 14:05:13;;;;;;;9.52;5.85;;;;;;;;;;5083457;28;20485;-73
2022/03/04 14:07:42;;;;;;;8.38;4.85;;;;;;;;;;5083591;28;20024;-78
2022/03/04 14:10:16;;;;;;;6.60;4.43;;;;;;;;;;5084139;28;20487;-80
2022/03/04 14:12:42;;;;;;;6.72;3.97;;;;;;;;;;5085091;28;20016;-83
2022/03/04 14:15:09;;;;;;;6.10;4.53;;;;;;;;;;5084913;28;20032;-72
2022/03/04 14:17:48;;;;;;;5.28;4.07;;;;;;;;;;5082322;28;20012;-76
2022/03/04 14:20:15;;;;;;;5.88;4.13;;;;;;;;;;5081524;28;20415;-71
2022/03/04 14:22:41;;;;;;;5.70;3.55;;;;;;;;;;5081430;28;20411;-84
2022/03/04 14:25:07;;;;;;;4.82;3.70;;;;;;;;;;5081192;28;20127;-85
2022/03/04 14:27:33;;;;;;;5.85;3.30;;;;;;;;;;5063417;28;20107;-75
2022/03/04 14:30:00;;;;;;;5.45;3.70;;;;;;;;;;5080824;28;20943;-72
2022/03/04 14:32:26;;;;;;;5.10;3.28;;;;;;;;;;5079558;28;20684;-78
2022/03/04 14:34:52;;;;;;;7.55;3.85;;;;;;;;;;5082875;28;20063;-77
2022/03/04 14:37:19;;;;;;;4.72;3.20;;;;;;;;;;5082687;28;20077;-79
2022/03/04 14:39:45;;;;;;;5.20;3.90;;;;;;;;;;5065500;28;20419;-74
2022/03/04 14:42:11;;;;;;;6.32;3.42;;;;;;;;;;5074172;28;20030;-83